sensor_id;sensor_type;location;lat;lon;timestamp;temperature;humidity
21104;DHT22;10710;53.398;-1.514;2023-07-08T00:01:54;18.70;99.90
21104;DHT22;10710;53.398;-1.514;2023-07-08T00:04:39;18.70;99.90
21104;DHT22;10710;53.398;-1.514;2023-07-08T00:07:24;18.70;99.90
21104;DHT22;10710;53.398;-1.514;2023-07-08T00:10:29;18.70;99.90
21104;DHT22;10710;53.398;-1.514;2023-07-08T00:13:13;18.70;99.90
21104;DHT22;10710;53.398;-1.514;2023-07-08T00:15:58;18.60;99.90
21104;DHT22;10710;53.398;-1.514;2023-07-08T00:18:42;18.70;99.90
21104;DHT22;10710;53.398;-1.514;2023-07-08T00:21:26;18.60;99.90
21104;DHT22;10710;53.398;-1.514;2023-07-08T00:24:11;18.50;99.90
21104;DHT22;10710;53.398;-1.514;2023-07-08T00:26:56;18.60;99.90
21104;DHT22;10710;53.398;-1.514;2023-07-08T00:29:41;18.60;99.90
21104;DHT22;10710;53.398;-1.514;2023-07-08T00:32:25;18.50;99.90
21104;DHT22;10710;53.398;-1.514;2023-07-08T00:35:09;18.40;99.90
21104;DHT22;10710;53.398;-1.514;2023-07-08T00:37:53;18.30;99.90
21104;DHT22;10710;53.398;-1.514;2023-07-08T00:43:48;18.30;99.90
21104;DHT22;10710;53.398;-1.514;2023-07-08T00:46:57;18.40;99.90
21104;DHT22;10710;53.398;-1.514;2023-07-08T00:49:52;18.40;99.90
21104;DHT22;10710;53.398;-1.514;2023-07-08T00:52:39;18.30;99.90
21104;DHT22;10710;53.398;-1.514;2023-07-08T00:55:24;18.30;99.90
21104;DHT22;10710;53.398;-1.514;2023-07-08T00:58:08;18.10;99.90
21104;DHT22;10710;53.398;-1.514;2023-07-08T01:00:53;18.20;99.90
21104;DHT22;10710;53.398;-1.514;2023-07-08T01:03:50;18.10;99.90
21104;DHT22;10710;53.398;-1.514;2023-07-08T01:06:38;18.10;99.90
21104;DHT22;10710;53.398;-1.514;2023-07-08T01:09:33;18.10;99.90
21104;DHT22;10710;53.398;-1.514;2023-07-08T01:12:22;18.10;99.90
21104;DHT22;10710;53.398;-1.514;2023-07-08T01:15:08;18.10;99.90
21104;DHT22;10710;53.398;-1.514;2023-07-08T01:17:54;18.00;99.90
21104;DHT22;10710;53.398;-1.514;2023-07-08T01:20:39;18.00;99.90
21104;DHT22;10710;53.398;-1.514;2023-07-08T01:23:24;18.00;99.90
21104;DHT22;10710;53.398;-1.514;2023-07-08T01:26:08;17.80;99.90
21104;DHT22;10710;53.398;-1.514;2023-07-08T01:28:54;17.80;99.90
21104;DHT22;10710;53.398;-1.514;2023-07-08T01:31:39;17.80;99.90
21104;DHT22;10710;53.398;-1.514;2023-07-08T01:34:23;17.80;99.90
21104;DHT22;10710;53.398;-1.514;2023-07-08T01:37:11;17.70;99.90
21104;DHT22;10710;53.398;-1.514;2023-07-08T01:39:56;17.70;99.90
21104;DHT22;10710;53.398;-1.514;2023-07-08T01:42:40;17.70;99.90
21104;DHT22;10710;53.398;-1.514;2023-07-08T01:45:27;17.60;99.90
21104;DHT22;10710;53.398;-1.514;2023-07-08T01:48:16;17.60;99.90
21104;DHT22;10710;53.398;-1.514;2023-07-08T01:51:04;17.60;99.90
21104;DHT22;10710;53.398;-1.514;2023-07-08T01:53:49;17.60;99.90
21104;DHT22;10710;53.398;-1.514;2023-07-08T01:56:33;17.60;99.90
21104;DHT22;10710;53.398;-1.514;2023-07-08T01:59:17;17.50;99.90
21104;DHT22;10710;53.398;-1.514;2023-07-08T02:02:01;17.40;99.90
21104;DHT22;10710;53.398;-1.514;2023-07-08T02:04:46;17.40;99.90
21104;DHT22;10710;53.398;-1.514;2023-07-08T02:07:30;17.30;99.90
21104;DHT22;10710;53.398;-1.514;2023-07-08T02:10:14;17.30;99.90
21104;DHT22;10710;53.398;-1.514;2023-07-08T02:12:58;17.30;99.90
21104;DHT22;10710;53.398;-1.514;2023-07-08T02:15:42;17.30;99.90
21104;DHT22;10710;53.398;-1.514;2023-07-08T02:18:26;17.20;99.90
21104;DHT22;10710;53.398;-1.514;2023-07-08T02:21:10;17.20;99.90
21104;DHT22;10710;53.398;-1.514;2023-07-08T02:23:57;17.20;99.90
21104;DHT22;10710;53.398;-1.514;2023-07-08T02:26:41;17.10;99.90
21104;DHT22;10710;53.398;-1.514;2023-07-08T02:29:25;17.10;99.90
21104;DHT22;10710;53.398;-1.514;2023-07-08T02:32:10;17.10;99.90
21104;DHT22;10710;53.398;-1.514;2023-07-08T02:34:55;17.10;99.90
21104;DHT22;10710;53.398;-1.514;2023-07-08T02:37:39;17.10;99.90
21104;DHT22;10710;53.398;-1.514;2023-07-08T02:40:24;17.10;99.90
21104;DHT22;10710;53.398;-1.514;2023-07-08T02:43:09;17.00;99.90
21104;DHT22;10710;53.398;-1.514;2023-07-08T02:45:53;17.00;99.90
21104;DHT22;10710;53.398;-1.514;2023-07-08T02:48:37;16.90;99.90
21104;DHT22;10710;53.398;-1.514;2023-07-08T02:51:21;16.90;99.90
21104;DHT22;10710;53.398;-1.514;2023-07-08T02:54:05;16.90;99.90
21104;DHT22;10710;53.398;-1.514;2023-07-08T02:56:49;16.80;99.90
21104;DHT22;10710;53.398;-1.514;2023-07-08T02:59:33;16.80;99.90
21104;DHT22;10710;53.398;-1.514;2023-07-08T03:02:18;16.80;99.90
21104;DHT22;10710;53.398;-1.514;2023-07-08T03:05:02;16.70;99.90
21104;DHT22;10710;53.398;-1.514;2023-07-08T03:07:49;16.60;99.90
21104;DHT22;10710;53.398;-1.514;2023-07-08T03:10:34;16.60;99.90
21104;DHT22;10710;53.398;-1.514;2023-07-08T03:13:18;16.60;99.90
21104;DHT22;10710;53.398;-1.514;2023-07-08T03:16:02;16.70;99.90
21104;DHT22;10710;53.398;-1.514;2023-07-08T03:18:47;16.60;99.90
21104;DHT22;10710;53.398;-1.514;2023-07-08T03:21:31;16.60;99.90
21104;DHT22;10710;53.398;-1.514;2023-07-08T03:24:15;16.60;99.90
21104;DHT22;10710;53.398;-1.514;2023-07-08T03:27:02;16.60;99.90
21104;DHT22;10710;53.398;-1.514;2023-07-08T03:29:48;16.40;99.90
21104;DHT22;10710;53.398;-1.514;2023-07-08T03:32:33;16.40;99.90
21104;DHT22;10710;53.398;-1.514;2023-07-08T03:35:17;16.40;99.90
21104;DHT22;10710;53.398;-1.514;2023-07-08T03:38:01;16.50;99.90
21104;DHT22;10710;53.398;-1.514;2023-07-08T03:40:47;16.50;99.90
21104;DHT22;10710;53.398;-1.514;2023-07-08T03:43:31;16.40;99.90
21104;DHT22;10710;53.398;-1.514;2023-07-08T03:46:15;16.20;99.90
21104;DHT22;10710;53.398;-1.514;2023-07-08T03:49:00;16.10;99.90
21104;DHT22;10710;53.398;-1.514;2023-07-08T03:51:45;16.00;99.90
21104;DHT22;10710;53.398;-1.514;2023-07-08T03:54:29;16.10;99.90
21104;DHT22;10710;53.398;-1.514;2023-07-08T03:57:13;16.10;99.90
21104;DHT22;10710;53.398;-1.514;2023-07-08T03:59:57;16.10;99.90
21104;DHT22;10710;53.398;-1.514;2023-07-08T04:02:43;16.10;99.90
21104;DHT22;10710;53.398;-1.514;2023-07-08T04:05:28;16.20;99.90
21104;DHT22;10710;53.398;-1.514;2023-07-08T04:08:12;16.10;99.90
21104;DHT22;10710;53.398;-1.514;2023-07-08T04:10:56;16.00;99.90
21104;DHT22;10710;53.398;-1.514;2023-07-08T04:13:40;15.90;99.90
21104;DHT22;10710;53.398;-1.514;2023-07-08T04:16:28;15.90;99.90
21104;DHT22;10710;53.398;-1.514;2023-07-08T04:19:14;16.00;99.90
21104;DHT22;10710;53.398;-1.514;2023-07-08T04:22:01;16.00;99.90
21104;DHT22;10710;53.398;-1.514;2023-07-08T04:24:46;16.00;99.90
21104;DHT22;10710;53.398;-1.514;2023-07-08T04:27:30;16.20;99.90
21104;DHT22;10710;53.398;-1.514;2023-07-08T04:30:25;16.20;99.90
21104;DHT22;10710;53.398;-1.514;2023-07-08T04:33:12;16.20;99.90
21104;DHT22;10710;53.398;-1.514;2023-07-08T04:35:57;16.10;99.90
21104;DHT22;10710;53.398;-1.514;2023-07-08T04:38:41;16.00;99.90
21104;DHT22;10710;53.398;-1.514;2023-07-08T04:41:30;16.20;99.90
21104;DHT22;10710;53.398;-1.514;2023-07-08T04:44:15;16.30;99.90
21104;DHT22;10710;53.398;-1.514;2023-07-08T04:47:02;16.40;99.90
21104;DHT22;10710;53.398;-1.514;2023-07-08T04:49:47;16.50;99.90
21104;DHT22;10710;53.398;-1.514;2023-07-08T04:52:31;16.50;99.90
21104;DHT22;10710;53.398;-1.514;2023-07-08T04:55:16;16.50;99.90
21104;DHT22;10710;53.398;-1.514;2023-07-08T04:58:00;16.50;99.90
21104;DHT22;10710;53.398;-1.514;2023-07-08T05:00:46;16.50;99.90
21104;DHT22;10710;53.398;-1.514;2023-07-08T05:03:30;16.50;99.90
21104;DHT22;10710;53.398;-1.514;2023-07-08T05:06:14;16.60;99.90
21104;DHT22;10710;53.398;-1.514;2023-07-08T05:08:59;16.70;99.90
21104;DHT22;10710;53.398;-1.514;2023-07-08T05:11:44;16.70;99.90
21104;DHT22;10710;53.398;-1.514;2023-07-08T05:14:28;16.60;99.90
21104;DHT22;10710;53.398;-1.514;2023-07-08T05:17:12;16.70;99.90
21104;DHT22;10710;53.398;-1.514;2023-07-08T05:19:56;16.80;99.90
21104;DHT22;10710;53.398;-1.514;2023-07-08T05:22:45;16.90;99.90
21104;DHT22;10710;53.398;-1.514;2023-07-08T05:25:32;17.00;99.90
21104;DHT22;10710;53.398;-1.514;2023-07-08T05:28:16;17.10;99.90
21104;DHT22;10710;53.398;-1.514;2023-07-08T05:31:01;17.30;99.90
21104;DHT22;10710;53.398;-1.514;2023-07-08T05:33:45;17.40;99.90
21104;DHT22;10710;53.398;-1.514;2023-07-08T05:36:29;17.50;99.90
21104;DHT22;10710;53.398;-1.514;2023-07-08T05:39:14;17.70;99.90
21104;DHT22;10710;53.398;-1.514;2023-07-08T05:41:58;18.00;99.90
21104;DHT22;10710;53.398;-1.514;2023-07-08T05:44:42;18.20;99.90
21104;DHT22;10710;53.398;-1.514;2023-07-08T05:47:27;18.20;99.90
21104;DHT22;10710;53.398;-1.514;2023-07-08T05:50:11;18.40;99.90
21104;DHT22;10710;53.398;-1.514;2023-07-08T05:52:55;18.50;99.90
21104;DHT22;10710;53.398;-1.514;2023-07-08T05:55:39;18.60;99.90
21104;DHT22;10710;53.398;-1.514;2023-07-08T05:58:24;18.90;99.90
21104;DHT22;10710;53.398;-1.514;2023-07-08T06:01:08;18.90;99.90
21104;DHT22;10710;53.398;-1.514;2023-07-08T06:03:53;19.20;99.90
21104;DHT22;10710;53.398;-1.514;2023-07-08T06:06:37;19.40;99.90
21104;DHT22;10710;53.398;-1.514;2023-07-08T06:09:21;19.40;99.90
21104;DHT22;10710;53.398;-1.514;2023-07-08T06:12:05;19.70;99.90
21104;DHT22;10710;53.398;-1.514;2023-07-08T06:14:50;19.80;99.90
21104;DHT22;10710;53.398;-1.514;2023-07-08T06:17:34;19.90;99.90
21104;DHT22;10710;53.398;-1.514;2023-07-08T06:20:18;20.20;99.90
21104;DHT22;10710;53.398;-1.514;2023-07-08T06:23:02;20.20;99.90
21104;DHT22;10710;53.398;-1.514;2023-07-08T06:25:47;20.20;99.90
21104;DHT22;10710;53.398;-1.514;2023-07-08T06:28:31;20.30;99.90
21104;DHT22;10710;53.398;-1.514;2023-07-08T06:31:15;20.40;99.90
21104;DHT22;10710;53.398;-1.514;2023-07-08T06:34:01;20.40;99.90
21104;DHT22;10710;53.398;-1.514;2023-07-08T06:36:45;20.60;99.90
21104;DHT22;10710;53.398;-1.514;2023-07-08T06:39:30;20.70;99.90
21104;DHT22;10710;53.398;-1.514;2023-07-08T06:42:14;20.90;99.90
21104;DHT22;10710;53.398;-1.514;2023-07-08T06:44:59;21.10;99.90
21104;DHT22;10710;53.398;-1.514;2023-07-08T06:47:43;21.00;99.90
21104;DHT22;10710;53.398;-1.514;2023-07-08T06:50:28;20.80;99.90
21104;DHT22;10710;53.398;-1.514;2023-07-08T06:53:13;20.70;99.90
21104;DHT22;10710;53.398;-1.514;2023-07-08T06:55:57;20.70;99.90
21104;DHT22;10710;53.398;-1.514;2023-07-08T06:58:41;20.80;99.90
21104;DHT22;10710;53.398;-1.514;2023-07-08T07:01:25;20.70;99.90
21104;DHT22;10710;53.398;-1.514;2023-07-08T07:04:09;20.70;99.90
21104;DHT22;10710;53.398;-1.514;2023-07-08T07:06:53;20.80;99.90
21104;DHT22;10710;53.398;-1.514;2023-07-08T07:09:38;20.80;99.90
21104;DHT22;10710;53.398;-1.514;2023-07-08T07:12:24;20.80;99.90
21104;DHT22;10710;53.398;-1.514;2023-07-08T07:15:09;21.00;99.90
21104;DHT22;10710;53.398;-1.514;2023-07-08T07:17:53;21.10;99.90
21104;DHT22;10710;53.398;-1.514;2023-07-08T07:20:46;21.20;99.90
21104;DHT22;10710;53.398;-1.514;2023-07-08T07:23:30;21.30;99.90
21104;DHT22;10710;53.398;-1.514;2023-07-08T07:26:14;21.30;99.90
21104;DHT22;10710;53.398;-1.514;2023-07-08T07:28:59;21.30;99.90
21104;DHT22;10710;53.398;-1.514;2023-07-08T07:31:43;21.50;99.90
21104;DHT22;10710;53.398;-1.514;2023-07-08T07:34:28;21.50;99.90
21104;DHT22;10710;53.398;-1.514;2023-07-08T07:37:13;21.40;99.90
21104;DHT22;10710;53.398;-1.514;2023-07-08T07:39:58;21.50;99.90
21104;DHT22;10710;53.398;-1.514;2023-07-08T07:42:44;21.80;99.90
21104;DHT22;10710;53.398;-1.514;2023-07-08T07:45:28;22.00;99.90
21104;DHT22;10710;53.398;-1.514;2023-07-08T07:48:13;22.10;99.90
21104;DHT22;10710;53.398;-1.514;2023-07-08T07:50:57;22.40;99.90
21104;DHT22;10710;53.398;-1.514;2023-07-08T07:53:41;22.70;99.90
21104;DHT22;10710;53.398;-1.514;2023-07-08T07:56:25;22.80;99.90
21104;DHT22;10710;53.398;-1.514;2023-07-08T07:59:10;22.60;99.90
21104;DHT22;10710;53.398;-1.514;2023-07-08T08:01:55;22.70;99.90
21104;DHT22;10710;53.398;-1.514;2023-07-08T08:04:39;22.70;99.90
21104;DHT22;10710;53.398;-1.514;2023-07-08T08:07:23;23.00;99.90
21104;DHT22;10710;53.398;-1.514;2023-07-08T08:10:07;23.20;99.90
21104;DHT22;10710;53.398;-1.514;2023-07-08T08:12:51;23.60;99.90
21104;DHT22;10710;53.398;-1.514;2023-07-08T08:15:36;23.60;99.90
21104;DHT22;10710;53.398;-1.514;2023-07-08T08:18:21;23.70;99.90
21104;DHT22;10710;53.398;-1.514;2023-07-08T08:21:05;23.80;99.90
21104;DHT22;10710;53.398;-1.514;2023-07-08T08:23:49;24.10;99.90
21104;DHT22;10710;53.398;-1.514;2023-07-08T08:26:34;24.30;99.90
21104;DHT22;10710;53.398;-1.514;2023-07-08T08:29:18;24.40;99.90
21104;DHT22;10710;53.398;-1.514;2023-07-08T08:32:03;24.50;99.90
21104;DHT22;10710;53.398;-1.514;2023-07-08T08:34:47;24.50;99.90
21104;DHT22;10710;53.398;-1.514;2023-07-08T08:37:31;24.60;99.90
21104;DHT22;10710;53.398;-1.514;2023-07-08T08:40:18;24.50;99.90
21104;DHT22;10710;53.398;-1.514;2023-07-08T08:43:12;24.30;99.90
21104;DHT22;10710;53.398;-1.514;2023-07-08T08:49:37;24.80;99.90
21104;DHT22;10710;53.398;-1.514;2023-07-08T08:52:24;25.10;99.90
21104;DHT22;10710;53.398;-1.514;2023-07-08T08:55:12;25.50;99.90
21104;DHT22;10710;53.398;-1.514;2023-07-08T09:01:02;25.20;99.90
21104;DHT22;10710;53.398;-1.514;2023-07-08T09:04:00;25.30;99.90
21104;DHT22;10710;53.398;-1.514;2023-07-08T09:06:46;25.40;99.90
21104;DHT22;10710;53.398;-1.514;2023-07-08T09:09:37;25.30;99.90
21104;DHT22;10710;53.398;-1.514;2023-07-08T09:12:26;25.50;99.90
21104;DHT22;10710;53.398;-1.514;2023-07-08T09:15:13;25.50;99.90
21104;DHT22;10710;53.398;-1.514;2023-07-08T09:18:17;25.60;99.90
21104;DHT22;10710;53.398;-1.514;2023-07-08T09:21:16;25.50;99.90
21104;DHT22;10710;53.398;-1.514;2023-07-08T09:24:08;25.50;99.90
21104;DHT22;10710;53.398;-1.514;2023-07-08T09:26:55;25.50;99.90
21104;DHT22;10710;53.398;-1.514;2023-07-08T09:29:41;25.60;99.90
21104;DHT22;10710;53.398;-1.514;2023-07-08T09:32:27;25.60;99.90
21104;DHT22;10710;53.398;-1.514;2023-07-08T09:35:28;25.60;99.90
21104;DHT22;10710;53.398;-1.514;2023-07-08T09:38:17;25.70;99.90
21104;DHT22;10710;53.398;-1.514;2023-07-08T09:41:02;25.50;99.90
21104;DHT22;10710;53.398;-1.514;2023-07-08T09:43:47;25.40;99.90
21104;DHT22;10710;53.398;-1.514;2023-07-08T09:46:36;25.50;99.90
21104;DHT22;10710;53.398;-1.514;2023-07-08T09:52:06;25.70;99.90
21104;DHT22;10710;53.398;-1.514;2023-07-08T09:54:51;25.90;99.90
21104;DHT22;10710;53.398;-1.514;2023-07-08T09:57:35;26.00;99.90
21104;DHT22;10710;53.398;-1.514;2023-07-08T10:00:28;26.00;99.90
21104;DHT22;10710;53.398;-1.514;2023-07-08T10:03:26;26.00;99.90
21104;DHT22;10710;53.398;-1.514;2023-07-08T10:06:26;26.10;99.90
21104;DHT22;10710;53.398;-1.514;2023-07-08T10:09:13;26.10;99.90
21104;DHT22;10710;53.398;-1.514;2023-07-08T10:12:04;26.50;99.90
21104;DHT22;10710;53.398;-1.514;2023-07-08T10:15:00;26.90;99.90
21104;DHT22;10710;53.398;-1.514;2023-07-08T10:17:46;27.10;99.90
21104;DHT22;10710;53.398;-1.514;2023-07-08T10:20:46;27.00;99.90
21104;DHT22;10710;53.398;-1.514;2023-07-08T10:26:34;27.30;99.90
21104;DHT22;10710;53.398;-1.514;2023-07-08T10:29:33;27.60;99.90
21104;DHT22;10710;53.398;-1.514;2023-07-08T10:35:21;27.90;99.90
21104;DHT22;10710;53.398;-1.514;2023-07-08T10:41:10;27.70;99.90
21104;DHT22;10710;53.398;-1.514;2023-07-08T10:44:21;26.90;99.90
21104;DHT22;10710;53.398;-1.514;2023-07-08T10:53:32;26.20;99.90
21104;DHT22;10710;53.398;-1.514;2023-07-08T10:56:20;26.10;99.90
21104;DHT22;10710;53.398;-1.514;2023-07-08T11:08:24;25.60;99.90
21104;DHT22;10710;53.398;-1.514;2023-07-08T11:14:47;25.40;99.90
21104;DHT22;10710;53.398;-1.514;2023-07-08T11:17:40;25.30;99.90
21104;DHT22;10710;53.398;-1.514;2023-07-08T11:20:42;25.40;99.90
21104;DHT22;10710;53.398;-1.514;2023-07-08T11:23:38;25.50;99.90
21104;DHT22;10710;53.398;-1.514;2023-07-08T11:26:45;25.80;99.90
21104;DHT22;10710;53.398;-1.514;2023-07-08T11:29:42;25.80;99.90
21104;DHT22;10710;53.398;-1.514;2023-07-08T11:32:30;26.00;99.90
21104;DHT22;10710;53.398;-1.514;2023-07-08T11:35:41;25.90;99.90
21104;DHT22;10710;53.398;-1.514;2023-07-08T11:38:27;26.00;99.90
21104;DHT22;10710;53.398;-1.514;2023-07-08T11:41:15;25.70;99.90
21104;DHT22;10710;53.398;-1.514;2023-07-08T11:44:05;25.30;99.90
21104;DHT22;10710;53.398;-1.514;2023-07-08T11:46:55;25.10;99.90
21104;DHT22;10710;53.398;-1.514;2023-07-08T11:49:40;25.00;99.90
21104;DHT22;10710;53.398;-1.514;2023-07-08T11:52:24;24.80;99.90
21104;DHT22;10710;53.398;-1.514;2023-07-08T11:55:19;24.40;99.90
21104;DHT22;10710;53.398;-1.514;2023-07-08T11:58:15;23.80;99.90
21104;DHT22;10710;53.398;-1.514;2023-07-08T12:04:15;22.80;99.90
21104;DHT22;10710;53.398;-1.514;2023-07-08T12:07:16;22.60;99.90
21104;DHT22;10710;53.398;-1.514;2023-07-08T12:10:18;22.70;99.90
21104;DHT22;10710;53.398;-1.514;2023-07-08T12:13:03;22.70;99.90
21104;DHT22;10710;53.398;-1.514;2023-07-08T12:15:48;22.70;99.90
21104;DHT22;10710;53.398;-1.514;2023-07-08T12:18:35;22.80;99.90
21104;DHT22;10710;53.398;-1.514;2023-07-08T12:21:23;22.80;99.90
21104;DHT22;10710;53.398;-1.514;2023-07-08T12:24:12;23.00;99.90
21104;DHT22;10710;53.398;-1.514;2023-07-08T12:26:57;23.10;99.90
21104;DHT22;10710;53.398;-1.514;2023-07-08T12:29:42;22.90;99.90
21104;DHT22;10710;53.398;-1.514;2023-07-08T12:32:27;23.00;99.90
21104;DHT22;10710;53.398;-1.514;2023-07-08T12:35:32;23.00;99.90
21104;DHT22;10710;53.398;-1.514;2023-07-08T12:41:19;22.80;99.90
21104;DHT22;10710;53.398;-1.514;2023-07-08T12:44:13;22.80;99.90
21104;DHT22;10710;53.398;-1.514;2023-07-08T12:47:02;22.70;99.90
21104;DHT22;10710;53.398;-1.514;2023-07-08T12:49:47;22.80;99.90
21104;DHT22;10710;53.398;-1.514;2023-07-08T12:52:31;22.70;99.90
21104;DHT22;10710;53.398;-1.514;2023-07-08T12:55:16;22.70;99.90
21104;DHT22;10710;53.398;-1.514;2023-07-08T12:58:01;22.60;99.90
21104;DHT22;10710;53.398;-1.514;2023-07-08T13:00:45;22.50;99.90
21104;DHT22;10710;53.398;-1.514;2023-07-08T13:03:37;22.60;99.90
21104;DHT22;10710;53.398;-1.514;2023-07-08T13:06:27;22.70;99.90
21104;DHT22;10710;53.398;-1.514;2023-07-08T13:09:43;22.80;99.90
21104;DHT22;10710;53.398;-1.514;2023-07-08T13:12:28;22.90;99.90
21104;DHT22;10710;53.398;-1.514;2023-07-08T13:15:21;23.00;99.90
21104;DHT22;10710;53.398;-1.514;2023-07-08T13:18:36;22.90;99.90
21104;DHT22;10710;53.398;-1.514;2023-07-08T13:21:21;22.70;99.90
21104;DHT22;10710;53.398;-1.514;2023-07-08T13:24:12;22.40;99.90
21104;DHT22;10710;53.398;-1.514;2023-07-08T13:26:56;22.30;99.90
21104;DHT22;10710;53.398;-1.514;2023-07-08T13:29:41;22.50;99.90
21104;DHT22;10710;53.398;-1.514;2023-07-08T13:32:30;22.50;99.90
21104;DHT22;10710;53.398;-1.514;2023-07-08T13:35:36;22.60;99.90
21104;DHT22;10710;53.398;-1.514;2023-07-08T13:38:23;22.40;99.90
21104;DHT22;10710;53.398;-1.514;2023-07-08T13:41:09;22.10;99.90
21104;DHT22;10710;53.398;-1.514;2023-07-08T13:43:54;22.10;99.90
21104;DHT22;10710;53.398;-1.514;2023-07-08T13:46:55;22.00;99.90
21104;DHT22;10710;53.398;-1.514;2023-07-08T13:49:44;22.10;99.90
21104;DHT22;10710;53.398;-1.514;2023-07-08T13:52:29;22.00;99.90
21104;DHT22;10710;53.398;-1.514;2023-07-08T13:55:18;22.10;99.90
21104;DHT22;10710;53.398;-1.514;2023-07-08T13:58:03;22.20;99.90
21104;DHT22;10710;53.398;-1.514;2023-07-08T14:00:50;22.60;99.90
21104;DHT22;10710;53.398;-1.514;2023-07-08T14:03:34;23.20;99.90
21104;DHT22;10710;53.398;-1.514;2023-07-08T14:06:21;23.60;99.90
21104;DHT22;10710;53.398;-1.514;2023-07-08T14:09:17;23.80;99.90
21104;DHT22;10710;53.398;-1.514;2023-07-08T14:12:02;23.90;99.90
21104;DHT22;10710;53.398;-1.514;2023-07-08T14:14:46;24.30;99.90
21104;DHT22;10710;53.398;-1.514;2023-07-08T14:17:31;24.60;99.90
21104;DHT22;10710;53.398;-1.514;2023-07-08T14:20:16;25.30;99.90
21104;DHT22;10710;53.398;-1.514;2023-07-08T14:23:02;25.60;99.90
21104;DHT22;10710;53.398;-1.514;2023-07-08T14:25:46;25.40;99.90
21104;DHT22;10710;53.398;-1.514;2023-07-08T14:28:30;25.20;99.90
21104;DHT22;10710;53.398;-1.514;2023-07-08T14:31:19;24.90;99.90
21104;DHT22;10710;53.398;-1.514;2023-07-08T14:34:11;24.60;99.90
21104;DHT22;10710;53.398;-1.514;2023-07-08T14:36:56;24.40;99.90
21104;DHT22;10710;53.398;-1.514;2023-07-08T14:39:40;24.60;99.90
21104;DHT22;10710;53.398;-1.514;2023-07-08T14:42:24;24.50;99.90
21104;DHT22;10710;53.398;-1.514;2023-07-08T14:45:09;24.60;99.90
21104;DHT22;10710;53.398;-1.514;2023-07-08T14:47:53;24.50;99.90
21104;DHT22;10710;53.398;-1.514;2023-07-08T14:50:37;24.40;99.90
21104;DHT22;10710;53.398;-1.514;2023-07-08T14:53:23;23.80;99.90
21104;DHT22;10710;53.398;-1.514;2023-07-08T14:56:14;23.50;99.90
21104;DHT22;10710;53.398;-1.514;2023-07-08T14:58:58;23.70;99.90
21104;DHT22;10710;53.398;-1.514;2023-07-08T15:01:44;23.80;99.90
21104;DHT22;10710;53.398;-1.514;2023-07-08T15:04:29;23.90;99.90
21104;DHT22;10710;53.398;-1.514;2023-07-08T15:07:13;23.80;99.90
21104;DHT22;10710;53.398;-1.514;2023-07-08T15:09:57;23.50;99.90
21104;DHT22;10710;53.398;-1.514;2023-07-08T15:12:42;23.60;99.90
21104;DHT22;10710;53.398;-1.514;2023-07-08T15:15:29;23.50;99.90
21104;DHT22;10710;53.398;-1.514;2023-07-08T15:18:18;23.50;99.90
21104;DHT22;10710;53.398;-1.514;2023-07-08T15:21:03;23.70;99.90
21104;DHT22;10710;53.398;-1.514;2023-07-08T15:23:48;24.10;99.90
21104;DHT22;10710;53.398;-1.514;2023-07-08T15:26:33;24.00;99.90
21104;DHT22;10710;53.398;-1.514;2023-07-08T15:29:22;23.90;99.90
21104;DHT22;10710;53.398;-1.514;2023-07-08T15:32:13;23.90;99.90
21104;DHT22;10710;53.398;-1.514;2023-07-08T15:34:59;24.20;99.90
21104;DHT22;10710;53.398;-1.514;2023-07-08T15:37:44;24.40;99.90
21104;DHT22;10710;53.398;-1.514;2023-07-08T15:40:31;24.40;99.90
21104;DHT22;10710;53.398;-1.514;2023-07-08T15:43:16;24.40;99.90
21104;DHT22;10710;53.398;-1.514;2023-07-08T15:46:01;24.40;99.90
21104;DHT22;10710;53.398;-1.514;2023-07-08T15:48:47;24.40;99.90
21104;DHT22;10710;53.398;-1.514;2023-07-08T15:51:31;24.30;99.90
21104;DHT22;10710;53.398;-1.514;2023-07-08T15:54:17;24.10;99.90
21104;DHT22;10710;53.398;-1.514;2023-07-08T15:57:02;24.10;99.90
21104;DHT22;10710;53.398;-1.514;2023-07-08T15:59:50;24.30;99.90
21104;DHT22;10710;53.398;-1.514;2023-07-08T16:02:35;24.40;99.90
21104;DHT22;10710;53.398;-1.514;2023-07-08T16:05:20;24.70;99.90
21104;DHT22;10710;53.398;-1.514;2023-07-08T16:08:05;24.60;99.90
21104;DHT22;10710;53.398;-1.514;2023-07-08T16:10:53;24.20;99.90
21104;DHT22;10710;53.398;-1.514;2023-07-08T16:13:39;24.50;99.90
21104;DHT22;10710;53.398;-1.514;2023-07-08T16:16:24;24.60;99.90
21104;DHT22;10710;53.398;-1.514;2023-07-08T16:19:13;24.80;99.90
21104;DHT22;10710;53.398;-1.514;2023-07-08T16:21:58;24.60;99.90
21104;DHT22;10710;53.398;-1.514;2023-07-08T16:24:42;24.50;99.90
21104;DHT22;10710;53.398;-1.514;2023-07-08T16:27:27;24.80;99.90
21104;DHT22;10710;53.398;-1.514;2023-07-08T16:30:19;24.90;99.90
21104;DHT22;10710;53.398;-1.514;2023-07-08T16:33:03;24.90;99.90
21104;DHT22;10710;53.398;-1.514;2023-07-08T16:35:47;25.30;99.90
21104;DHT22;10710;53.398;-1.514;2023-07-08T16:38:32;25.60;99.90
21104;DHT22;10710;53.398;-1.514;2023-07-08T16:41:21;25.80;99.90
21104;DHT22;10710;53.398;-1.514;2023-07-08T16:44:15;26.20;99.90
21104;DHT22;10710;53.398;-1.514;2023-07-08T16:47:00;25.90;99.90
21104;DHT22;10710;53.398;-1.514;2023-07-08T16:49:44;25.80;99.90
21104;DHT22;10710;53.398;-1.514;2023-07-08T16:52:28;25.40;99.90
21104;DHT22;10710;53.398;-1.514;2023-07-08T16:55:18;25.20;99.90
21104;DHT22;10710;53.398;-1.514;2023-07-08T16:58:02;25.20;99.90
21104;DHT22;10710;53.398;-1.514;2023-07-08T17:00:48;25.30;99.90
21104;DHT22;10710;53.398;-1.514;2023-07-08T17:03:33;25.40;99.90
21104;DHT22;10710;53.398;-1.514;2023-07-08T17:06:18;25.50;99.90
21104;DHT22;10710;53.398;-1.514;2023-07-08T17:09:03;25.30;99.90
21104;DHT22;10710;53.398;-1.514;2023-07-08T17:11:48;25.50;99.90
21104;DHT22;10710;53.398;-1.514;2023-07-08T17:14:33;25.50;99.90
21104;DHT22;10710;53.398;-1.514;2023-07-08T17:17:17;25.80;99.90
21104;DHT22;10710;53.398;-1.514;2023-07-08T17:22:58;25.50;99.90
21104;DHT22;10710;53.398;-1.514;2023-07-08T17:25:42;25.20;99.90
21104;DHT22;10710;53.398;-1.514;2023-07-08T17:28:26;25.30;99.90
21104;DHT22;10710;53.398;-1.514;2023-07-08T17:31:18;25.10;99.90
21104;DHT22;10710;53.398;-1.514;2023-07-08T17:34:04;25.00;99.90
21104;DHT22;10710;53.398;-1.514;2023-07-08T17:36:50;25.10;99.90
21104;DHT22;10710;53.398;-1.514;2023-07-08T17:39:34;25.30;99.90
21104;DHT22;10710;53.398;-1.514;2023-07-08T17:42:18;25.20;99.90
21104;DHT22;10710;53.398;-1.514;2023-07-08T17:45:03;25.10;99.90
21104;DHT22;10710;53.398;-1.514;2023-07-08T17:47:48;25.20;99.90
21104;DHT22;10710;53.398;-1.514;2023-07-08T17:50:32;25.00;99.90
21104;DHT22;10710;53.398;-1.514;2023-07-08T17:53:17;25.20;99.90
21104;DHT22;10710;53.398;-1.514;2023-07-08T17:56:01;25.20;99.90
21104;DHT22;10710;53.398;-1.514;2023-07-08T17:58:50;25.00;99.90
21104;DHT22;10710;53.398;-1.514;2023-07-08T18:01:35;25.10;99.90
21104;DHT22;10710;53.398;-1.514;2023-07-08T18:04:20;25.20;99.90
21104;DHT22;10710;53.398;-1.514;2023-07-08T18:07:04;25.20;99.90